createdAt,value
2022-09-28T00:01:27.222Z,83.54
2022-09-28T00:04:15.596Z,83.69
2022-09-28T00:10:49.217Z,83.94
2022-09-28T00:14:13.075Z,84.12
2022-09-28T00:17:35.732Z,84.32
2022-09-28T00:20:41.407Z,84.57
2022-09-28T00:23:48.083Z,84.88
2022-09-28T00:26:54.351Z,85.19
2022-09-28T00:29:44.850Z,85.47
2022-09-28T00:33:46.826Z,85.48
2022-09-28T00:37:29.140Z,85.62
2022-09-28T00:40:53.398Z,85.67
2022-09-28T00:43:44.578Z,85.32
2022-09-28T00:46:20.298Z,85.17
2022-09-28T00:49:03.444Z,85.05
2022-09-28T00:51:32.246Z,84.97
2022-09-28T00:54:04.393Z,84.76
2022-09-28T00:56:34.922Z,84.55
2022-09-28T00:59:05.421Z,84.44
2022-09-28T01:01:37.565Z,84.24
2022-09-28T01:04:06.693Z,83.86
2022-09-28T01:06:39.199Z,83.74
2022-09-28T01:09:11.252Z,83.42
2022-09-28T01:11:40.018Z,83.29
2022-09-28T01:14:14.516Z,82.98
2022-09-28T01:16:48.631Z,82.95
2022-09-28T01:20:21.080Z,83.06
2022-09-28T01:22:51.975Z,83.05
2022-09-28T01:25:34.339Z,83.04
2022-09-28T01:28:14.447Z,83.02
2022-09-28T01:30:51.211Z,83.11
2022-09-28T01:33:26.068Z,83.25
2022-09-28T01:36:05.030Z,83.32
2022-09-28T01:38:55.996Z,83.51
2022-09-28T01:41:29.363Z,83.70
2022-09-28T01:44:04.709Z,83.68
2022-09-28T01:46:39.601Z,83.90
2022-09-28T01:49:24.386Z,84.04
2022-09-28T01:52:17.676Z,84.24
2022-09-28T01:54:54.643Z,84.45
2022-09-28T01:57:37.360Z,84.63
2022-09-28T02:00:10.636Z,84.60
2022-09-28T02:03:05.444Z,84.65
2022-09-28T02:05:56.525Z,84.70
2022-09-28T02:08:38.459Z,84.72
2022-09-28T02:11:20.089Z,84.91
2022-09-28T02:14:11.064Z,84.92
2022-09-28T02:16:41.618Z,84.42
2022-09-28T02:19:32.347Z,84.35
2022-09-28T02:22:09.463Z,84.19
2022-09-28T02:24:53.799Z,84.06
2022-09-28T02:27:31.527Z,83.89
2022-09-28T02:29:59.806Z,83.73
2022-09-28T02:32:32.078Z,83.55
2022-09-28T02:35:01.069Z,83.44
2022-09-28T02:37:29.340Z,83.46
2022-09-28T02:40:04.646Z,83.48
2022-09-28T02:43:03.529Z,83.21
2022-09-28T02:46:02.321Z,83.02
2022-09-28T02:49:20.226Z,82.88
2022-09-28T02:52:19.204Z,82.76
2022-09-28T02:55:09.305Z,82.64
2022-09-28T02:58:06.909Z,82.72
2022-09-28T03:00:54.282Z,82.78
2022-09-28T03:03:46.419Z,82.96
2022-09-28T03:06:41.525Z,83.18
2022-09-28T03:09:34.887Z,83.39
2022-09-28T03:12:13.615Z,83.48
2022-09-28T03:14:45.882Z,83.53
2022-09-28T03:17:14.051Z,83.70
2022-09-28T03:19:42.229Z,83.70
2022-09-28T03:22:11.431Z,83.56
2022-09-28T03:24:39.518Z,83.55
2022-09-28T03:27:10.799Z,83.48
2022-09-28T03:29:39.236Z,83.47
2022-09-28T03:32:07.811Z,83.31
2022-09-28T03:34:35.991Z,83.23
2022-09-28T03:37:04.201Z,83.22
2022-09-28T03:39:32.540Z,83.23
2022-09-28T03:42:01.539Z,82.99
2022-09-28T03:44:31.211Z,83.01
2022-09-28T03:46:59.649Z,82.80
2022-09-28T03:49:27.766Z,82.76
2022-09-28T03:52:02.219Z,82.74
2022-09-28T03:54:30.726Z,82.59
2022-09-28T03:56:58.896Z,82.73
2022-09-28T03:59:27.151Z,82.68
2022-09-28T04:01:55.398Z,82.58
2022-09-28T04:04:24.438Z,82.45
2022-09-28T04:06:56.691Z,82.36
2022-09-28T04:09:26.316Z,82.32
2022-09-28T04:12:03.710Z,82.06
2022-09-28T04:14:34.006Z,82.00
2022-09-28T04:17:02.288Z,81.88
2022-09-28T04:19:32.718Z,81.79
2022-09-28T04:22:14.419Z,81.77
2022-09-28T04:24:43.815Z,81.89
2022-09-28T04:27:30.818Z,81.96
2022-09-28T04:29:59.094Z,82.28
2022-09-28T04:32:27.343Z,82.34
2022-09-28T04:34:57.554Z,82.71
2022-09-28T04:37:25.677Z,83.05
2022-09-28T04:39:53.822Z,83.20
2022-09-28T04:42:24.061Z,83.16
2022-09-28T04:44:52.468Z,83.26
2022-09-28T04:47:20.510Z,83.38
2022-09-28T04:50:08.965Z,83.56
2022-09-28T04:52:57.766Z,83.61
2022-09-28T04:55:29.103Z,83.59
2022-09-28T04:57:57.654Z,83.70
2022-09-28T05:00:30.117Z,83.65
2022-09-28T05:03:08.030Z,83.46
2022-09-28T05:05:59.356Z,83.36
2022-09-28T05:08:41.131Z,83.41
2022-09-28T05:11:14.752Z,83.26
2022-09-28T05:13:45.698Z,83.16
2022-09-28T05:16:16.994Z,83.32
2022-09-28T05:19:04.198Z,83.21
2022-09-28T05:21:33.342Z,82.91
2022-09-28T05:24:07.476Z,82.93
2022-09-28T05:26:37.849Z,82.70
2022-09-28T05:29:08.475Z,82.80
2022-09-28T05:31:46.047Z,82.65
2022-09-28T05:34:34.629Z,82.59
2022-09-28T05:37:02.895Z,82.63
2022-09-28T05:39:31.898Z,82.44
2022-09-28T05:42:01.306Z,82.55
2022-09-28T05:44:30.587Z,82.50
2022-09-28T05:46:58.875Z,82.29
2022-09-28T05:49:29.403Z,82.11
2022-09-28T05:51:57.935Z,82.22
2022-09-28T05:54:26.475Z,82.20
2022-09-28T05:56:55.366Z,82.10
2022-09-28T05:59:27.029Z,81.93
2022-09-28T06:01:55.603Z,81.76
2022-09-28T06:04:23.970Z,81.83
2022-09-28T06:06:55.334Z,81.98
2022-09-28T06:09:25.983Z,81.92
2022-09-28T06:12:04.070Z,81.94
2022-09-28T06:14:42.374Z,82.02
2022-09-28T06:17:13.395Z,82.17
2022-09-28T06:19:43.840Z,82.06
2022-09-28T06:22:30.589Z,81.94
2022-09-28T06:25:09.684Z,81.72
2022-09-28T06:27:42.669Z,81.70
2022-09-28T06:30:15.111Z,81.81
2022-09-28T06:32:47.236Z,82.08
2022-09-28T06:35:17.427Z,81.93
2022-09-28T06:37:48.220Z,82.04
2022-09-28T06:40:23.647Z,81.90
2022-09-28T06:43:10.301Z,81.76
2022-09-28T06:46:01.049Z,81.36
2022-09-28T06:48:50.773Z,81.17
2022-09-28T06:51:26.003Z,81.20
2022-09-28T06:54:27.416Z,80.80
2022-09-28T06:57:29.446Z,80.41
2022-09-28T07:00:00.896Z,80.01
2022-09-28T07:02:40.589Z,79.50
2022-09-28T07:05:30.551Z,79.11
2022-09-28T07:08:22.304Z,78.85
2022-09-28T07:11:08.383Z,78.43
2022-09-28T07:14:03.294Z,77.73
2022-09-28T07:17:03.169Z,77.91
2022-09-28T07:19:25.020Z,76.74
2022-09-28T07:22:07.565Z,76.64
2022-09-28T07:24:49.400Z,76.17
2022-09-28T07:27:39.677Z,75.94
2022-09-28T07:30:34.619Z,76.44
2022-09-28T07:33:32.369Z,76.41
2022-09-28T07:36:21.133Z,75.93
2022-09-28T07:38:54.135Z,75.48
2022-09-28T07:41:35.159Z,74.99
2022-09-28T07:44:17.739Z,75.22
2022-09-28T07:46:54.617Z,74.12
2022-09-28T07:49:29.871Z,73.28
2022-09-28T07:52:12.687Z,73.00
2022-09-28T07:55:07.187Z,72.04
2022-09-28T07:58:03.693Z,72.70
2022-09-28T08:01:13.487Z,72.34
2022-09-28T08:03:49.602Z,71.24
2022-09-28T08:06:19.020Z,70.86
2022-09-28T08:08:47.930Z,70.63
2022-09-28T08:11:19.053Z,70.49
2022-09-28T08:14:18.648Z,70.40
2022-09-28T08:17:08.433Z,70.30
2022-09-28T08:20:02.889Z,69.45
2022-09-28T08:22:32.692Z,69.03
2022-09-28T08:25:02.288Z,68.49
2022-09-28T08:27:31.507Z,67.87
2022-09-28T08:30:01.769Z,67.38
2022-09-28T08:32:49.782Z,67.57
2022-09-28T08:35:38.355Z,68.27
2022-09-28T08:38:33.999Z,68.12
2022-09-28T08:41:45.733Z,67.51
2022-09-28T08:44:52.747Z,67.51
2022-09-28T08:48:14.621Z,66.31
2022-09-28T08:51:25.095Z,65.57
2022-09-28T08:54:26.363Z,64.90
2022-09-28T08:57:22.186Z,64.24
2022-09-28T08:59:56.251Z,64.30
2022-09-28T09:02:39.847Z,64.25
2022-09-28T09:05:21.298Z,63.85
2022-09-28T09:08:30.367Z,63.68
2022-09-28T09:11:04.370Z,63.30
2022-09-28T09:13:58.823Z,63.55
2022-09-28T09:17:00.443Z,62.77
2022-09-28T09:20:12.922Z,62.49
2022-09-28T09:23:00.459Z,62.46
2022-09-28T09:25:43.946Z,61.95
2022-09-28T09:28:56.413Z,61.81
2022-09-28T09:32:08.251Z,61.71
2022-09-28T09:34:46.651Z,62.26
2022-09-28T09:38:01.313Z,62.75
2022-09-28T09:41:18.228Z,62.70
2022-09-28T09:44:19.170Z,63.00
2022-09-28T09:47:25.257Z,63.25
2022-09-28T09:50:12.747Z,63.07
2022-09-28T09:52:58.976Z,63.15
2022-09-28T09:55:57.933Z,62.49
2022-09-28T09:58:50.673Z,62.27
2022-09-28T10:01:35.002Z,61.48
2022-09-28T10:04:27.705Z,60.80
2022-09-28T10:07:06.182Z,60.44
2022-09-28T10:09:51.744Z,60.36
2022-09-28T10:12:34.641Z,60.53
2022-09-28T10:15:08.030Z,60.07
2022-09-28T10:17:51.000Z,60.13
2022-09-28T10:20:58.525Z,59.98
2022-09-28T10:23:38.996Z,59.47
2022-09-28T10:26:18.748Z,60.29
2022-09-28T10:29:04.497Z,61.03
2022-09-28T10:31:38.889Z,59.79
2022-09-28T10:34:18.149Z,60.26
2022-09-28T10:37:01.691Z,60.35
2022-09-28T10:39:47.293Z,62.05
2022-09-28T10:42:26.406Z,62.91
2022-09-28T10:45:10.048Z,64.19
2022-09-28T10:47:45.344Z,65.52
2022-09-28T10:50:27.167Z,66.57
2022-09-28T10:53:21.022Z,67.39
2022-09-28T10:56:21.835Z,68.48
2022-09-28T10:58:53.664Z,69.91
2022-09-28T11:01:33.834Z,71.08
2022-09-28T11:04:11.305Z,72.09
2022-09-28T11:06:42.456Z,72.78
2022-09-28T11:09:30.874Z,73.23
2022-09-28T11:12:07.343Z,73.92
2022-09-28T11:14:44.248Z,74.12
2022-09-28T11:17:34.364Z,74.51
2022-09-28T11:20:27.366Z,74.89
2022-09-28T11:23:18.593Z,74.50
2022-09-28T11:26:05.734Z,74.76
2022-09-28T11:28:42.065Z,74.80
2022-09-28T11:31:17.843Z,75.20
2022-09-28T11:34:31.441Z,75.01
2022-09-28T11:37:25.264Z,75.02
2022-09-28T11:40:30.015Z,74.82
2022-09-28T11:43:13.328Z,75.34
2022-09-28T11:45:50.581Z,75.57
2022-09-28T11:48:29.297Z,75.48
2022-09-28T11:51:10.014Z,75.42
2022-09-28T11:53:51.406Z,75.78
2022-09-28T11:56:55.189Z,76.22
2022-09-28T11:59:36.990Z,76.96
2022-09-28T12:02:34.955Z,77.06
2022-09-28T12:05:33.750Z,76.46
2022-09-28T12:08:09.802Z,76.38
2022-09-28T12:11:13.701Z,76.03
2022-09-28T12:14:26.519Z,76.33
2022-09-28T12:17:08.624Z,76.25
2022-09-28T12:19:51.561Z,75.95
2022-09-28T12:22:40.113Z,75.87
2022-09-28T12:25:19.925Z,76.47
2022-09-28T12:28:05.097Z,76.74
2022-09-28T12:30:42.992Z,76.57
2022-09-28T12:33:17.387Z,75.89
2022-09-28T12:36:11.502Z,76.01
2022-09-28T12:39:27.191Z,75.89
2022-09-28T12:42:35.621Z,76.07
2022-09-28T12:45:20.983Z,76.05
2022-09-28T12:48:29.111Z,76.12
2022-09-28T12:51:43.795Z,76.31
2022-09-28T12:54:31.560Z,76.69
2022-09-28T12:57:12.710Z,76.36
2022-09-28T13:00:16.043Z,75.91
2022-09-28T13:03:22.597Z,75.79
2022-09-28T13:06:19.556Z,76.33
2022-09-28T13:09:17.445Z,75.65
2022-09-28T13:12:05.750Z,75.89
2022-09-28T13:15:17.827Z,75.89
2022-09-28T13:18:03.320Z,76.13
2022-09-28T13:20:56.623Z,75.70
2022-09-28T13:23:50.077Z,75.08
2022-09-28T13:26:33.668Z,74.81
2022-09-28T13:29:19.471Z,74.85
2022-09-28T13:31:59.261Z,74.78
2022-09-28T13:34:35.070Z,75.06
2022-09-28T13:37:26.435Z,75.13
2022-09-28T13:40:42.036Z,74.98
2022-09-28T13:43:33.062Z,75.26
2022-09-28T13:46:16.544Z,75.39
2022-09-28T13:49:18.398Z,75.24
2022-09-28T13:51:59.479Z,75.78
2022-09-28T13:55:03.447Z,75.56
2022-09-28T13:58:15.848Z,75.12
2022-09-28T14:01:03.973Z,75.12
2022-09-28T14:04:14.344Z,75.13
2022-09-28T14:07:20.362Z,75.22
2022-09-28T14:10:23.039Z,75.45
2022-09-28T14:13:15.448Z,76.03
2022-09-28T14:15:49.583Z,76.59
2022-09-28T14:18:56.742Z,76.68
2022-09-28T14:22:10.572Z,76.62
2022-09-28T14:25:40.522Z,76.75
2022-09-28T14:28:29.532Z,76.56
2022-09-28T14:31:16.796Z,76.64
2022-09-28T14:34:00.077Z,76.81
2022-09-28T14:37:01.551Z,76.87
2022-09-28T14:39:53.638Z,77.13
2022-09-28T14:42:29.534Z,77.21
2022-09-28T14:45:07.309Z,77.12
2022-09-28T14:47:43.371Z,77.04
2022-09-28T14:50:33.588Z,77.20
2022-09-28T14:53:14.725Z,77.42
2022-09-28T14:55:55.490Z,77.55
2022-09-28T14:58:31.296Z,77.76
2022-09-28T15:01:18.457Z,78.15
2022-09-28T15:03:57.332Z,78.35
2022-09-28T15:06:51.539Z,78.42
2022-09-28T15:09:42.254Z,78.66
2022-09-28T15:12:19.992Z,78.72
2022-09-28T15:15:01.995Z,78.94
2022-09-28T15:17:41.997Z,78.66
2022-09-28T15:20:31.866Z,78.48
2022-09-28T15:23:06.192Z,78.99
2022-09-28T15:25:39.533Z,79.21
2022-09-28T15:28:23.373Z,79.32
2022-09-28T15:31:02.103Z,79.52
2022-09-28T15:33:55.485Z,79.24
2022-09-28T15:36:33.191Z,79.22
2022-09-28T15:39:18.445Z,79.43
2022-09-28T15:41:52.725Z,79.28
2022-09-28T15:44:40.053Z,79.19
2022-09-28T15:47:24.833Z,79.27
2022-09-28T15:50:11.266Z,79.54
2022-09-28T15:52:48.025Z,79.82
2022-09-28T15:55:29.052Z,79.72
2022-09-28T15:58:24.832Z,79.82
2022-09-28T16:01:41.852Z,79.75
2022-09-28T16:04:54.189Z,80.07
2022-09-28T16:07:56.406Z,80.26
2022-09-28T16:10:35.207Z,80.47
2022-09-28T16:13:19.829Z,80.37
2022-09-28T16:16:00.980Z,80.71
2022-09-28T16:18:37.016Z,80.87
2022-09-28T16:21:28.540Z,81.13
2022-09-28T16:24:03.258Z,81.27
2022-09-28T16:26:40.197Z,81.23
2022-09-28T16:29:41.396Z,80.90
2022-09-28T16:32:27.798Z,80.47
2022-09-28T16:35:14.661Z,80.44
2022-09-28T16:37:55.367Z,80.46
2022-09-28T16:40:28.887Z,80.33
2022-09-28T16:43:04.051Z,80.22
2022-09-28T16:45:36.296Z,80.10
2022-09-28T16:48:06.745Z,79.98
2022-09-28T16:50:39.051Z,79.95
2022-09-28T16:53:38.516Z,79.89
2022-09-28T16:56:11.088Z,79.90
2022-09-28T16:58:43.363Z,79.89
2022-09-28T17:01:14.703Z,79.94
2022-09-28T17:03:47.821Z,80.16
2022-09-28T17:06:19.371Z,80.09
2022-09-28T17:08:50.803Z,80.25
2022-09-28T17:11:25.055Z,80.32
2022-09-28T17:14:02.216Z,80.28
2022-09-28T17:17:07.826Z,80.30
2022-09-28T17:19:31.058Z,80.03
2022-09-28T17:22:04.926Z,79.64
2022-09-28T17:24:39.376Z,79.61
2022-09-28T17:27:18.149Z,79.23
2022-09-28T17:29:51.506Z,79.22
2022-09-28T17:32:23.532Z,79.20
2022-09-28T17:35:06.529Z,79.27
2022-09-28T17:37:48.698Z,79.14
2022-09-28T17:40:29.877Z,78.87
2022-09-28T17:43:11.066Z,78.94
2022-09-28T17:45:43.750Z,78.71
2022-09-28T17:48:18.590Z,78.35
2022-09-28T17:50:52.453Z,78.31
2022-09-28T17:53:27.142Z,78.36
2022-09-28T17:56:01.500Z,78.36
2022-09-28T17:58:33.920Z,78.64
2022-09-28T18:01:05.744Z,78.59
2022-09-28T18:03:37.673Z,78.68
2022-09-28T18:06:16.056Z,78.76
2022-09-28T18:08:49.014Z,78.70
2022-09-28T18:11:25.533Z,78.92
2022-09-28T18:14:01.449Z,79.17
2022-09-28T18:16:36.786Z,79.09
2022-09-28T18:19:14.288Z,79.15
2022-09-28T18:21:50.795Z,79.14
2022-09-28T18:24:24.326Z,79.22
2022-09-28T18:26:56.334Z,79.38
2022-09-28T18:29:32.915Z,79.50
2022-09-28T18:32:07.006Z,79.76
2022-09-28T18:34:42.782Z,79.57
2022-09-28T18:37:17.771Z,79.46
2022-09-28T18:39:51.873Z,79.18
2022-09-28T18:42:27.479Z,78.81
2022-09-28T18:45:05.413Z,78.73
2022-09-28T18:47:42.425Z,78.67
2022-09-28T18:50:17.965Z,78.83
2022-09-28T18:52:50.927Z,78.81
2022-09-28T18:55:28.015Z,78.79
2022-09-28T18:58:04.363Z,78.72
2022-09-28T19:00:46.092Z,78.52
2022-09-28T19:03:22.562Z,78.27
2022-09-28T19:06:04.815Z,78.48
2022-09-28T19:08:42.497Z,78.51
2022-09-28T19:11:21.476Z,78.63
2022-09-28T19:13:57.443Z,78.82
2022-09-28T19:16:41.819Z,78.83
2022-09-28T19:19:24.900Z,79.08
2022-09-28T19:21:58.211Z,79.27
2022-09-28T19:24:32.833Z,79.17
2022-09-28T19:27:20.953Z,79.14
2022-09-28T19:29:55.190Z,79.20
2022-09-28T19:32:26.692Z,79.22
2022-09-28T19:35:05.119Z,79.28
2022-09-28T19:37:43.991Z,79.23
2022-09-28T19:40:19.824Z,79.33
2022-09-28T19:42:53.752Z,79.41
2022-09-28T19:45:26.223Z,79.52
2022-09-28T19:48:04.125Z,79.35
2022-09-28T19:50:37.742Z,79.47
2022-09-28T19:53:13.631Z,79.54
2022-09-28T19:55:43.649Z,79.57
2022-09-28T19:58:13.047Z,79.59
2022-09-28T20:00:43.020Z,79.71
2022-09-28T20:03:12.777Z,79.61
2022-09-28T20:05:44.513Z,79.35
2022-09-28T20:08:17.370Z,79.28
2022-09-28T20:10:55.805Z,79.09
2022-09-28T20:13:39.794Z,78.83
2022-09-28T20:16:14.930Z,78.75
2022-09-28T20:18:51.812Z,78.80
2022-09-28T20:21:26.841Z,78.64
2022-09-28T20:23:59.188Z,78.56
2022-09-28T20:26:32.662Z,78.53
2022-09-28T20:29:09.877Z,78.38
2022-09-28T20:31:43.337Z,78.56
2022-09-28T20:34:14.894Z,78.67
2022-09-28T20:36:45.738Z,78.66
2022-09-28T20:39:17.916Z,78.42
2022-09-28T20:41:50.787Z,78.45
2022-09-28T20:44:22.710Z,78.22
2022-09-28T20:46:58.084Z,78.07
2022-09-28T20:49:32.619Z,77.86
2022-09-28T20:52:09.499Z,77.79
2022-09-28T20:54:43.881Z,77.71
2022-09-28T20:57:25.714Z,77.69
2022-09-28T20:59:56.736Z,77.76
2022-09-28T21:02:29.250Z,77.83
2022-09-28T21:04:59.552Z,77.64
2022-09-28T21:07:31.990Z,77.65
2022-09-28T21:10:06.922Z,77.65
2022-09-28T21:12:38.727Z,77.47
2022-09-28T21:15:08.787Z,77.41
2022-09-28T21:17:44.834Z,77.20
2022-09-28T21:20:16.635Z,77.19
2022-09-28T21:22:46.805Z,77.24
2022-09-28T21:25:20.618Z,77.33
2022-09-28T21:27:56.735Z,77.32
2022-09-28T21:30:32.717Z,77.18
2022-09-28T21:33:03.249Z,77.30
2022-09-28T21:35:36.385Z,77.29
2022-09-28T21:38:09.354Z,77.25
2022-09-28T21:40:45.450Z,77.50
2022-09-28T21:43:17.516Z,77.64
2022-09-28T21:45:51.439Z,77.64
2022-09-28T21:48:24.068Z,77.79
2022-09-28T21:51:02.448Z,77.86
2022-09-28T21:53:34.754Z,77.76
2022-09-28T21:56:10.131Z,77.57
2022-09-28T21:58:40.793Z,77.51
2022-09-28T22:01:17.274Z,77.33
2022-09-28T22:03:54.179Z,77.35
2022-09-28T22:06:28.093Z,77.42
2022-09-28T22:08:57.622Z,77.44
2022-09-28T22:11:31.462Z,77.40
2022-09-28T22:14:02.182Z,77.47
2022-09-28T22:16:33.055Z,77.29
2022-09-28T22:19:02.135Z,77.17
2022-09-28T22:21:34.741Z,77.15
2022-09-28T22:24:07.612Z,77.11
2022-09-28T22:26:38.381Z,77.03
2022-09-28T22:29:10.689Z,76.95
2022-09-28T22:31:42.324Z,76.86
2022-09-28T22:34:14.692Z,76.83
2022-09-28T22:36:44.193Z,77.05
2022-09-28T22:39:16.225Z,77.16
2022-09-28T22:41:46.346Z,77.26
2022-09-28T22:44:15.005Z,77.19
2022-09-28T22:46:44.251Z,77.27
2022-09-28T22:49:13.010Z,77.48
2022-09-28T22:51:41.190Z,77.59
2022-09-28T22:54:10.916Z,77.78
2022-09-28T22:56:39.170Z,77.70
2022-09-28T22:59:07.360Z,77.73
2022-09-28T23:01:35.406Z,77.82
2022-09-28T23:04:03.591Z,77.65
2022-09-28T23:06:33.229Z,77.72
2022-09-28T23:09:02.090Z,77.65
2022-09-28T23:11:30.477Z,77.64
2022-09-28T23:14:01.922Z,77.55
2022-09-28T23:16:30.444Z,77.26
2022-09-28T23:19:01.227Z,77.18
2022-09-28T23:21:29.512Z,77.14
2022-09-28T23:24:01.716Z,76.86
2022-09-28T23:26:32.766Z,76.86
2022-09-28T23:29:00.998Z,76.97
2022-09-28T23:31:34.175Z,76.81
2022-09-28T23:34:06.569Z,76.76
2022-09-28T23:36:35.252Z,76.79
2022-09-28T23:39:04.246Z,76.81
2022-09-28T23:41:35.534Z,76.79
2022-09-28T23:44:04.186Z,76.64
2022-09-28T23:46:32.715Z,76.66
2022-09-28T23:49:00.964Z,76.71
2022-09-28T23:51:29.106Z,76.77
2022-09-28T23:54:03.901Z,76.83
2022-09-28T23:56:42.334Z,76.98
2022-09-28T23:59:10.525Z,77.23
